sensor_id;sensor_type;location;lat;lon;timestamp;temperature;humidity
11242;DHT22;5678;52.370;9.006;2023-07-28T00:01:39;17.60;99.90
11242;DHT22;5678;52.370;9.006;2023-07-28T00:04:07;17.60;99.90
11242;DHT22;5678;52.370;9.006;2023-07-28T00:06:37;17.50;99.90
11242;DHT22;5678;52.370;9.006;2023-07-28T00:09:05;17.70;99.90
11242;DHT22;5678;52.370;9.006;2023-07-28T00:11:34;17.60;99.90
11242;DHT22;5678;52.370;9.006;2023-07-28T00:14:02;17.40;99.90
11242;DHT22;5678;52.370;9.006;2023-07-28T00:16:30;17.60;99.90
11242;DHT22;5678;52.370;9.006;2023-07-28T00:18:59;17.70;99.90
11242;DHT22;5678;52.370;9.006;2023-07-28T00:21:27;17.90;99.90
11242;DHT22;5678;52.370;9.006;2023-07-28T00:23:55;17.40;99.90
11242;DHT22;5678;52.370;9.006;2023-07-28T00:26:23;17.50;99.90
11242;DHT22;5678;52.370;9.006;2023-07-28T00:28:52;17.70;99.90
11242;DHT22;5678;52.370;9.006;2023-07-28T00:31:20;17.60;99.90
11242;DHT22;5678;52.370;9.006;2023-07-28T00:33:48;17.50;99.90
11242;DHT22;5678;52.370;9.006;2023-07-28T00:36:16;17.20;99.90
11242;DHT22;5678;52.370;9.006;2023-07-28T00:38:44;17.40;99.90
11242;DHT22;5678;52.370;9.006;2023-07-28T00:41:11;17.60;99.90
11242;DHT22;5678;52.370;9.006;2023-07-28T00:43:39;17.40;99.90
11242;DHT22;5678;52.370;9.006;2023-07-28T00:46:09;17.70;99.90
11242;DHT22;5678;52.370;9.006;2023-07-28T00:48:38;17.40;99.90
11242;DHT22;5678;52.370;9.006;2023-07-28T00:51:07;17.30;99.90
11242;DHT22;5678;52.370;9.006;2023-07-28T00:53:35;17.50;99.90
11242;DHT22;5678;52.370;9.006;2023-07-28T00:56:04;17.40;99.90
11242;DHT22;5678;52.370;9.006;2023-07-28T00:58:35;17.30;99.90
11242;DHT22;5678;52.370;9.006;2023-07-28T01:01:03;17.40;99.90
11242;DHT22;5678;52.370;9.006;2023-07-28T01:03:32;17.30;99.90
11242;DHT22;5678;52.370;9.006;2023-07-28T01:06:11;17.40;99.90
11242;DHT22;5678;52.370;9.006;2023-07-28T01:08:46;17.50;99.90
11242;DHT22;5678;52.370;9.006;2023-07-28T01:11:15;17.50;99.90
11242;DHT22;5678;52.370;9.006;2023-07-28T01:13:43;17.50;99.90
11242;DHT22;5678;52.370;9.006;2023-07-28T01:16:11;17.40;99.90
11242;DHT22;5678;52.370;9.006;2023-07-28T01:18:40;17.60;99.90
11242;DHT22;5678;52.370;9.006;2023-07-28T01:21:20;17.30;99.90
11242;DHT22;5678;52.370;9.006;2023-07-28T01:26:37;17.60;99.90
11242;DHT22;5678;52.370;9.006;2023-07-28T01:29:06;17.30;99.90
11242;DHT22;5678;52.370;9.006;2023-07-28T01:31:35;17.40;99.90
11242;DHT22;5678;52.370;9.006;2023-07-28T01:34:03;17.60;99.90
11242;DHT22;5678;52.370;9.006;2023-07-28T01:36:31;17.30;99.90
11242;DHT22;5678;52.370;9.006;2023-07-28T01:38:59;17.50;99.90
11242;DHT22;5678;52.370;9.006;2023-07-28T01:41:27;17.50;99.90
11242;DHT22;5678;52.370;9.006;2023-07-28T01:43:56;17.30;99.90
11242;DHT22;5678;52.370;9.006;2023-07-28T01:46:24;17.50;99.90
11242;DHT22;5678;52.370;9.006;2023-07-28T01:48:53;17.40;99.90
11242;DHT22;5678;52.370;9.006;2023-07-28T01:51:21;17.00;99.90
11242;DHT22;5678;52.370;9.006;2023-07-28T01:53:49;17.10;99.90
11242;DHT22;5678;52.370;9.006;2023-07-28T01:56:17;17.00;99.90
11242;DHT22;5678;52.370;9.006;2023-07-28T01:58:45;17.00;99.90
11242;DHT22;5678;52.370;9.006;2023-07-28T02:01:15;17.00;99.90
11242;DHT22;5678;52.370;9.006;2023-07-28T02:03:43;17.00;99.90
11242;DHT22;5678;52.370;9.006;2023-07-28T02:06:11;17.00;99.90
11242;DHT22;5678;52.370;9.006;2023-07-28T02:08:39;17.00;99.90
11242;DHT22;5678;52.370;9.006;2023-07-28T02:11:07;17.00;99.90
11242;DHT22;5678;52.370;9.006;2023-07-28T02:13:35;17.00;99.90
11242;DHT22;5678;52.370;9.006;2023-07-28T02:16:06;17.00;99.90
11242;DHT22;5678;52.370;9.006;2023-07-28T02:18:35;17.00;99.90
11242;DHT22;5678;52.370;9.006;2023-07-28T02:21:04;17.00;99.90
11242;DHT22;5678;52.370;9.006;2023-07-28T02:23:32;17.00;99.90
11242;DHT22;5678;52.370;9.006;2023-07-28T02:26:00;17.00;99.90
11242;DHT22;5678;52.370;9.006;2023-07-28T02:28:28;17.00;99.90
11242;DHT22;5678;52.370;9.006;2023-07-28T02:30:57;17.00;99.90
11242;DHT22;5678;52.370;9.006;2023-07-28T02:33:27;17.00;99.90
11242;DHT22;5678;52.370;9.006;2023-07-28T02:35:57;17.00;99.90
11242;DHT22;5678;52.370;9.006;2023-07-28T02:38:25;17.00;99.90
11242;DHT22;5678;52.370;9.006;2023-07-28T02:40:54;17.00;99.90
11242;DHT22;5678;52.370;9.006;2023-07-28T02:43:22;17.00;99.90
11242;DHT22;5678;52.370;9.006;2023-07-28T02:45:53;16.90;99.90
11242;DHT22;5678;52.370;9.006;2023-07-28T02:48:22;16.90;99.90
11242;DHT22;5678;52.370;9.006;2023-07-28T02:50:51;16.90;99.90
11242;DHT22;5678;52.370;9.006;2023-07-28T02:53:21;16.90;99.90
11242;DHT22;5678;52.370;9.006;2023-07-28T02:55:49;16.90;99.90
11242;DHT22;5678;52.370;9.006;2023-07-28T02:58:19;16.90;99.90
11242;DHT22;5678;52.370;9.006;2023-07-28T03:00:48;16.90;99.90
11242;DHT22;5678;52.370;9.006;2023-07-28T03:03:16;16.90;99.90
11242;DHT22;5678;52.370;9.006;2023-07-28T03:05:44;16.90;99.90
11242;DHT22;5678;52.370;9.006;2023-07-28T03:08:13;16.90;99.90
11242;DHT22;5678;52.370;9.006;2023-07-28T03:10:42;17.00;99.90
11242;DHT22;5678;52.370;9.006;2023-07-28T03:13:10;16.90;99.90
11242;DHT22;5678;52.370;9.006;2023-07-28T03:15:39;17.00;99.90
11242;DHT22;5678;52.370;9.006;2023-07-28T03:18:07;16.90;99.90
11242;DHT22;5678;52.370;9.006;2023-07-28T03:20:35;16.90;99.90
11242;DHT22;5678;52.370;9.006;2023-07-28T03:23:03;16.90;99.90
11242;DHT22;5678;52.370;9.006;2023-07-28T03:25:32;16.90;99.90
11242;DHT22;5678;52.370;9.006;2023-07-28T03:28:02;17.00;99.90
11242;DHT22;5678;52.370;9.006;2023-07-28T03:30:31;16.90;99.90
11242;DHT22;5678;52.370;9.006;2023-07-28T03:33:17;16.90;99.90
11242;DHT22;5678;52.370;9.006;2023-07-28T03:35:45;16.90;99.90
11242;DHT22;5678;52.370;9.006;2023-07-28T03:38:13;16.90;99.90
11242;DHT22;5678;52.370;9.006;2023-07-28T03:40:41;16.90;99.90
11242;DHT22;5678;52.370;9.006;2023-07-28T03:43:12;16.90;99.90
11242;DHT22;5678;52.370;9.006;2023-07-28T03:45:41;16.90;99.90
11242;DHT22;5678;52.370;9.006;2023-07-28T03:48:09;16.90;99.90
11242;DHT22;5678;52.370;9.006;2023-07-28T03:50:37;16.90;99.90
11242;DHT22;5678;52.370;9.006;2023-07-28T03:53:05;16.90;99.90
11242;DHT22;5678;52.370;9.006;2023-07-28T03:55:34;16.90;99.90
11242;DHT22;5678;52.370;9.006;2023-07-28T03:58:03;16.90;99.90
11242;DHT22;5678;52.370;9.006;2023-07-28T04:00:33;16.90;99.90
11242;DHT22;5678;52.370;9.006;2023-07-28T04:03:01;17.00;99.90
11242;DHT22;5678;52.370;9.006;2023-07-28T04:05:29;16.90;99.90
11242;DHT22;5678;52.370;9.006;2023-07-28T04:07:58;16.90;99.90
11242;DHT22;5678;52.370;9.006;2023-07-28T04:10:26;16.90;99.90
11242;DHT22;5678;52.370;9.006;2023-07-28T04:12:54;16.90;99.90
11242;DHT22;5678;52.370;9.006;2023-07-28T04:15:22;16.90;99.90
11242;DHT22;5678;52.370;9.006;2023-07-28T04:17:52;17.00;99.90
11242;DHT22;5678;52.370;9.006;2023-07-28T04:20:20;17.00;99.90
11242;DHT22;5678;52.370;9.006;2023-07-28T04:22:48;16.90;99.90
11242;DHT22;5678;52.370;9.006;2023-07-28T04:25:17;16.90;99.90
11242;DHT22;5678;52.370;9.006;2023-07-28T04:27:45;17.00;99.90
11242;DHT22;5678;52.370;9.006;2023-07-28T04:30:13;17.00;99.90
11242;DHT22;5678;52.370;9.006;2023-07-28T04:32:42;17.00;99.90
11242;DHT22;5678;52.370;9.006;2023-07-28T04:35:12;17.00;99.90
11242;DHT22;5678;52.370;9.006;2023-07-28T04:37:40;17.00;99.90
11242;DHT22;5678;52.370;9.006;2023-07-28T04:40:09;17.00;99.90
11242;DHT22;5678;52.370;9.006;2023-07-28T04:42:37;17.10;99.90
11242;DHT22;5678;52.370;9.006;2023-07-28T04:45:06;17.10;99.90
11242;DHT22;5678;52.370;9.006;2023-07-28T04:47:35;17.00;99.90
11242;DHT22;5678;52.370;9.006;2023-07-28T04:50:04;17.00;99.90
11242;DHT22;5678;52.370;9.006;2023-07-28T04:52:33;17.00;99.90
11242;DHT22;5678;52.370;9.006;2023-07-28T04:55:02;17.00;99.90
11242;DHT22;5678;52.370;9.006;2023-07-28T04:57:30;17.10;99.90
11242;DHT22;5678;52.370;9.006;2023-07-28T04:59:58;17.10;99.90
11242;DHT22;5678;52.370;9.006;2023-07-28T05:02:27;17.10;99.90
11242;DHT22;5678;52.370;9.006;2023-07-28T05:04:55;17.10;99.90
11242;DHT22;5678;52.370;9.006;2023-07-28T05:07:23;17.10;99.90
11242;DHT22;5678;52.370;9.006;2023-07-28T05:09:53;17.20;99.90
11242;DHT22;5678;52.370;9.006;2023-07-28T05:12:21;17.20;99.90
11242;DHT22;5678;52.370;9.006;2023-07-28T05:14:50;17.10;99.90
11242;DHT22;5678;52.370;9.006;2023-07-28T05:17:18;17.20;99.90
11242;DHT22;5678;52.370;9.006;2023-07-28T05:19:47;17.30;99.90
11242;DHT22;5678;52.370;9.006;2023-07-28T05:22:15;17.30;99.90
11242;DHT22;5678;52.370;9.006;2023-07-28T05:24:43;17.30;99.90
11242;DHT22;5678;52.370;9.006;2023-07-28T05:27:13;17.30;99.90
11242;DHT22;5678;52.370;9.006;2023-07-28T05:29:41;17.40;99.90
11242;DHT22;5678;52.370;9.006;2023-07-28T05:32:09;17.40;99.90
11242;DHT22;5678;52.370;9.006;2023-07-28T05:34:38;17.40;99.90
11242;DHT22;5678;52.370;9.006;2023-07-28T05:37:06;17.40;99.90
11242;DHT22;5678;52.370;9.006;2023-07-28T05:39:34;17.50;99.90
11242;DHT22;5678;52.370;9.006;2023-07-28T05:42:02;17.50;99.90
11242;DHT22;5678;52.370;9.006;2023-07-28T05:44:33;17.60;99.90
11242;DHT22;5678;52.370;9.006;2023-07-28T05:47:01;17.60;99.90
11242;DHT22;5678;52.370;9.006;2023-07-28T05:49:29;17.70;99.90
11242;DHT22;5678;52.370;9.006;2023-07-28T05:51:58;17.70;99.90
11242;DHT22;5678;52.370;9.006;2023-07-28T05:54:29;17.80;99.90
11242;DHT22;5678;52.370;9.006;2023-07-28T05:56:58;17.70;99.90
11242;DHT22;5678;52.370;9.006;2023-07-28T05:59:26;17.70;99.90
11242;DHT22;5678;52.370;9.006;2023-07-28T06:01:55;17.60;99.90
11242;DHT22;5678;52.370;9.006;2023-07-28T06:04:24;17.70;99.90
11242;DHT22;5678;52.370;9.006;2023-07-28T06:06:52;17.70;99.90
11242;DHT22;5678;52.370;9.006;2023-07-28T06:09:20;17.70;99.90
11242;DHT22;5678;52.370;9.006;2023-07-28T06:11:48;18.00;99.90
11242;DHT22;5678;52.370;9.006;2023-07-28T06:14:16;18.00;99.90
11242;DHT22;5678;52.370;9.006;2023-07-28T06:16:44;18.00;99.90
11242;DHT22;5678;52.370;9.006;2023-07-28T06:19:13;18.00;99.90
11242;DHT22;5678;52.370;9.006;2023-07-28T06:21:43;17.90;99.90
11242;DHT22;5678;52.370;9.006;2023-07-28T06:24:11;18.00;99.90
11242;DHT22;5678;52.370;9.006;2023-07-28T06:26:39;17.90;99.90
11242;DHT22;5678;52.370;9.006;2023-07-28T06:29:07;18.00;99.90
11242;DHT22;5678;52.370;9.006;2023-07-28T06:31:35;17.90;99.90
11242;DHT22;5678;52.370;9.006;2023-07-28T06:34:03;18.00;99.90
11242;DHT22;5678;52.370;9.006;2023-07-28T06:36:32;18.10;99.90
11242;DHT22;5678;52.370;9.006;2023-07-28T06:39:00;18.30;99.90
11242;DHT22;5678;52.370;9.006;2023-07-28T06:41:28;18.40;99.90
11242;DHT22;5678;52.370;9.006;2023-07-28T06:43:56;18.30;99.90
11242;DHT22;5678;52.370;9.006;2023-07-28T06:46:24;18.40;99.90
11242;DHT22;5678;52.370;9.006;2023-07-28T06:48:52;18.70;99.90
11242;DHT22;5678;52.370;9.006;2023-07-28T06:51:20;18.60;99.90
11242;DHT22;5678;52.370;9.006;2023-07-28T06:53:49;18.50;99.90
11242;DHT22;5678;52.370;9.006;2023-07-28T06:56:17;18.50;99.90
11242;DHT22;5678;52.370;9.006;2023-07-28T06:58:45;18.80;99.90
11242;DHT22;5678;52.370;9.006;2023-07-28T07:01:30;18.90;99.90
11242;DHT22;5678;52.370;9.006;2023-07-28T07:03:59;19.00;99.90
11242;DHT22;5678;52.370;9.006;2023-07-28T07:06:27;19.20;99.90
11242;DHT22;5678;52.370;9.006;2023-07-28T07:08:56;19.20;99.90
11242;DHT22;5678;52.370;9.006;2023-07-28T07:11:24;19.00;99.90
11242;DHT22;5678;52.370;9.006;2023-07-28T07:13:52;19.10;99.90
11242;DHT22;5678;52.370;9.006;2023-07-28T07:16:20;19.40;99.90
11242;DHT22;5678;52.370;9.006;2023-07-28T07:18:51;19.50;99.90
11242;DHT22;5678;52.370;9.006;2023-07-28T07:21:19;19.70;99.90
11242;DHT22;5678;52.370;9.006;2023-07-28T07:23:47;19.80;99.90
11242;DHT22;5678;52.370;9.006;2023-07-28T07:26:16;19.90;99.90
11242;DHT22;5678;52.370;9.006;2023-07-28T07:28:44;20.00;99.90
11242;DHT22;5678;52.370;9.006;2023-07-28T07:31:12;20.00;99.90
11242;DHT22;5678;52.370;9.006;2023-07-28T07:33:41;20.30;99.90
11242;DHT22;5678;52.370;9.006;2023-07-28T07:36:12;20.40;99.90
11242;DHT22;5678;52.370;9.006;2023-07-28T07:38:40;20.40;99.90
11242;DHT22;5678;52.370;9.006;2023-07-28T07:41:08;20.50;99.90
11242;DHT22;5678;52.370;9.006;2023-07-28T07:43:39;20.60;99.90
11242;DHT22;5678;52.370;9.006;2023-07-28T07:46:07;20.90;99.90
11242;DHT22;5678;52.370;9.006;2023-07-28T07:48:35;21.20;99.90
11242;DHT22;5678;52.370;9.006;2023-07-28T08:23:28;22.00;99.90
11242;DHT22;5678;52.370;9.006;2023-07-28T08:25:56;22.50;99.90
11242;DHT22;5678;52.370;9.006;2023-07-28T08:28:25;22.70;99.90
11242;DHT22;5678;52.370;9.006;2023-07-28T08:30:54;23.30;99.90
11242;DHT22;5678;52.370;9.006;2023-07-28T08:33:24;23.30;99.90
11242;DHT22;5678;52.370;9.006;2023-07-28T08:35:52;23.30;99.90
11242;DHT22;5678;52.370;9.006;2023-07-28T08:38:20;23.30;99.90
11242;DHT22;5678;52.370;9.006;2023-07-28T08:40:48;23.20;99.90
11242;DHT22;5678;52.370;9.006;2023-07-28T08:43:16;23.10;99.90
11242;DHT22;5678;52.370;9.006;2023-07-28T08:45:44;23.00;99.90
11242;DHT22;5678;52.370;9.006;2023-07-28T08:48:12;22.90;99.90
11242;DHT22;5678;52.370;9.006;2023-07-28T08:50:41;23.10;99.90
11242;DHT22;5678;52.370;9.006;2023-07-28T08:53:09;23.30;99.90
11242;DHT22;5678;52.370;9.006;2023-07-28T08:55:37;23.20;99.90
11242;DHT22;5678;52.370;9.006;2023-07-28T08:58:16;22.90;99.90
11242;DHT22;5678;52.370;9.006;2023-07-28T09:00:46;22.90;99.90
11242;DHT22;5678;52.370;9.006;2023-07-28T09:03:16;22.90;99.90
11242;DHT22;5678;52.370;9.006;2023-07-28T09:05:46;23.10;99.90
11242;DHT22;5678;52.370;9.006;2023-07-28T09:08:14;23.70;99.90
11242;DHT22;5678;52.370;9.006;2023-07-28T09:10:43;24.00;99.90
11242;DHT22;5678;52.370;9.006;2023-07-28T09:13:12;24.50;99.90
11242;DHT22;5678;52.370;9.006;2023-07-28T09:15:44;24.80;99.90
11242;DHT22;5678;52.370;9.006;2023-07-28T09:18:14;24.90;99.90
11242;DHT22;5678;52.370;9.006;2023-07-28T09:20:44;24.80;99.90
11242;DHT22;5678;52.370;9.006;2023-07-28T09:23:13;24.70;99.90
11242;DHT22;5678;52.370;9.006;2023-07-28T09:28:10;24.60;99.90
11242;DHT22;5678;52.370;9.006;2023-07-28T09:30:47;24.90;99.90
11242;DHT22;5678;52.370;9.006;2023-07-28T09:33:29;25.30;99.90
11242;DHT22;5678;52.370;9.006;2023-07-28T09:36:06;25.60;99.90
11242;DHT22;5678;52.370;9.006;2023-07-28T09:38:37;25.60;99.90
11242;DHT22;5678;52.370;9.006;2023-07-28T09:41:06;25.50;99.90
11242;DHT22;5678;52.370;9.006;2023-07-28T09:43:36;25.30;99.90
11242;DHT22;5678;52.370;9.006;2023-07-28T09:46:07;25.10;99.90
11242;DHT22;5678;52.370;9.006;2023-07-28T09:48:37;24.80;99.90
11242;DHT22;5678;52.370;9.006;2023-07-28T09:51:12;24.70;99.90
11242;DHT22;5678;52.370;9.006;2023-07-28T09:53:45;24.50;99.90
11242;DHT22;5678;52.370;9.006;2023-07-28T09:56:15;24.30;99.90
11242;DHT22;5678;52.370;9.006;2023-07-28T09:58:49;24.40;99.90
11242;DHT22;5678;52.370;9.006;2023-07-28T10:01:19;24.30;99.90
11242;DHT22;5678;52.370;9.006;2023-07-28T10:03:49;24.30;99.90
11242;DHT22;5678;52.370;9.006;2023-07-28T10:06:19;24.30;99.90
11242;DHT22;5678;52.370;9.006;2023-07-28T10:08:49;24.50;99.90
11242;DHT22;5678;52.370;9.006;2023-07-28T10:11:18;24.50;99.90
11242;DHT22;5678;52.370;9.006;2023-07-28T10:13:46;24.50;99.90
11242;DHT22;5678;52.370;9.006;2023-07-28T10:16:16;24.60;99.90
11242;DHT22;5678;52.370;9.006;2023-07-28T10:18:51;24.60;99.90
11242;DHT22;5678;52.370;9.006;2023-07-28T10:21:21;24.60;99.90
11242;DHT22;5678;52.370;9.006;2023-07-28T10:23:55;24.60;99.90
11242;DHT22;5678;52.370;9.006;2023-07-28T10:26:35;24.40;99.90
11242;DHT22;5678;52.370;9.006;2023-07-28T10:29:11;24.20;99.90
11242;DHT22;5678;52.370;9.006;2023-07-28T10:31:50;24.00;99.90
11242;DHT22;5678;52.370;9.006;2023-07-28T10:34:19;24.00;99.90
11242;DHT22;5678;52.370;9.006;2023-07-28T10:36:57;24.30;99.90
11242;DHT22;5678;52.370;9.006;2023-07-28T10:39:26;24.60;99.90
11242;DHT22;5678;52.370;9.006;2023-07-28T10:42:02;25.00;99.90
11242;DHT22;5678;52.370;9.006;2023-07-28T10:44:31;24.90;99.90
11242;DHT22;5678;52.370;9.006;2023-07-28T10:46:59;24.90;99.90
11242;DHT22;5678;52.370;9.006;2023-07-28T10:49:28;25.10;99.90
11242;DHT22;5678;52.370;9.006;2023-07-28T10:51:57;25.30;99.90
11242;DHT22;5678;52.370;9.006;2023-07-28T10:54:25;25.40;99.90
11242;DHT22;5678;52.370;9.006;2023-07-28T10:56:53;25.20;99.90
11242;DHT22;5678;52.370;9.006;2023-07-28T10:59:21;25.10;99.90
11242;DHT22;5678;52.370;9.006;2023-07-28T11:01:49;25.10;99.90
11242;DHT22;5678;52.370;9.006;2023-07-28T11:04:18;25.30;99.90
11242;DHT22;5678;52.370;9.006;2023-07-28T11:06:47;25.30;99.90
11242;DHT22;5678;52.370;9.006;2023-07-28T11:09:19;25.30;99.90
11242;DHT22;5678;52.370;9.006;2023-07-28T11:11:49;25.40;99.90
11242;DHT22;5678;52.370;9.006;2023-07-28T11:14:17;25.60;99.90
11242;DHT22;5678;52.370;9.006;2023-07-28T11:16:46;25.40;99.90
11242;DHT22;5678;52.370;9.006;2023-07-28T11:19:16;25.40;99.90
11242;DHT22;5678;52.370;9.006;2023-07-28T11:21:46;25.30;99.90
11242;DHT22;5678;52.370;9.006;2023-07-28T11:24:20;25.10;99.90
11242;DHT22;5678;52.370;9.006;2023-07-28T11:26:49;25.00;99.90
11242;DHT22;5678;52.370;9.006;2023-07-28T11:29:19;24.80;99.90
11242;DHT22;5678;52.370;9.006;2023-07-28T11:31:48;25.10;99.90
11242;DHT22;5678;52.370;9.006;2023-07-28T11:34:16;25.00;99.90
11242;DHT22;5678;52.370;9.006;2023-07-28T11:36:45;25.40;99.90
11242;DHT22;5678;52.370;9.006;2023-07-28T11:39:13;25.60;99.90
11242;DHT22;5678;52.370;9.006;2023-07-28T11:41:43;25.90;99.90
11242;DHT22;5678;52.370;9.006;2023-07-28T11:44:15;26.10;99.90
11242;DHT22;5678;52.370;9.006;2023-07-28T11:46:44;25.80;99.90
11242;DHT22;5678;52.370;9.006;2023-07-28T11:49:14;25.90;99.90
11242;DHT22;5678;52.370;9.006;2023-07-28T11:51:44;25.70;99.90
11242;DHT22;5678;52.370;9.006;2023-07-28T11:54:14;26.00;99.90
11242;DHT22;5678;52.370;9.006;2023-07-28T11:56:44;26.20;99.90
11242;DHT22;5678;52.370;9.006;2023-07-28T11:59:15;26.00;99.90
11242;DHT22;5678;52.370;9.006;2023-07-28T12:01:56;25.90;99.90
11242;DHT22;5678;52.370;9.006;2023-07-28T12:04:28;25.80;99.90
11242;DHT22;5678;52.370;9.006;2023-07-28T12:07:04;25.50;99.90
11242;DHT22;5678;52.370;9.006;2023-07-28T12:09:48;25.20;99.90
11242;DHT22;5678;52.370;9.006;2023-07-28T12:12:31;25.20;99.90
11242;DHT22;5678;52.370;9.006;2023-07-28T12:18:08;25.40;99.90
11242;DHT22;5678;52.370;9.006;2023-07-28T12:20:40;25.70;99.90
11242;DHT22;5678;52.370;9.006;2023-07-28T12:23:13;25.60;99.90
11242;DHT22;5678;52.370;9.006;2023-07-28T12:25:45;25.50;99.90
11242;DHT22;5678;52.370;9.006;2023-07-28T12:30:46;25.30;99.90
11242;DHT22;5678;52.370;9.006;2023-07-28T12:33:16;25.40;99.90
11242;DHT22;5678;52.370;9.006;2023-07-28T12:35:46;25.60;99.90
11242;DHT22;5678;52.370;9.006;2023-07-28T12:40:48;25.70;99.90
11242;DHT22;5678;52.370;9.006;2023-07-28T12:43:20;25.70;99.90
11242;DHT22;5678;52.370;9.006;2023-07-28T12:45:51;25.70;99.90
11242;DHT22;5678;52.370;9.006;2023-07-28T12:48:23;25.90;99.90
11242;DHT22;5678;52.370;9.006;2023-07-28T12:50:51;25.80;99.90
11242;DHT22;5678;52.370;9.006;2023-07-28T12:53:22;25.80;99.90
11242;DHT22;5678;52.370;9.006;2023-07-28T12:55:50;26.10;99.90
11242;DHT22;5678;52.370;9.006;2023-07-28T12:58:22;26.40;99.90
11242;DHT22;5678;52.370;9.006;2023-07-28T13:00:53;26.60;99.90
11242;DHT22;5678;52.370;9.006;2023-07-28T13:05:54;26.70;99.90
11242;DHT22;5678;52.370;9.006;2023-07-28T13:08:22;26.70;99.90
11242;DHT22;5678;52.370;9.006;2023-07-28T13:10:53;26.60;99.90
11242;DHT22;5678;52.370;9.006;2023-07-28T13:13:25;26.70;99.90
11242;DHT22;5678;52.370;9.006;2023-07-28T13:15:55;26.40;99.90
11242;DHT22;5678;52.370;9.006;2023-07-28T13:18:24;26.30;99.90
11242;DHT22;5678;52.370;9.006;2023-07-28T13:20:52;26.40;99.90
11242;DHT22;5678;52.370;9.006;2023-07-28T13:23:20;26.50;99.90
11242;DHT22;5678;52.370;9.006;2023-07-28T13:25:48;26.80;99.90
11242;DHT22;5678;52.370;9.006;2023-07-28T13:28:16;26.90;99.90
11242;DHT22;5678;52.370;9.006;2023-07-28T13:30:45;26.90;99.90
11242;DHT22;5678;52.370;9.006;2023-07-28T13:33:13;26.90;99.90
11242;DHT22;5678;52.370;9.006;2023-07-28T13:35:41;26.90;99.90
11242;DHT22;5678;52.370;9.006;2023-07-28T13:38:09;26.90;99.90
11242;DHT22;5678;52.370;9.006;2023-07-28T13:40:37;26.80;99.90
11242;DHT22;5678;52.370;9.006;2023-07-28T13:45:34;27.00;99.90
11242;DHT22;5678;52.370;9.006;2023-07-28T13:48:04;27.10;99.90
11242;DHT22;5678;52.370;9.006;2023-07-28T13:50:32;27.10;99.90
11242;DHT22;5678;52.370;9.006;2023-07-28T13:53:03;27.20;99.90
11242;DHT22;5678;52.370;9.006;2023-07-28T13:55:33;27.10;99.90
11242;DHT22;5678;52.370;9.006;2023-07-28T13:58:04;27.20;99.90
11242;DHT22;5678;52.370;9.006;2023-07-28T14:00:33;27.10;99.90
11242;DHT22;5678;52.370;9.006;2023-07-28T14:03:01;27.30;99.90
11242;DHT22;5678;52.370;9.006;2023-07-28T14:05:31;27.40;99.90
11242;DHT22;5678;52.370;9.006;2023-07-28T14:07:59;27.40;99.90
11242;DHT22;5678;52.370;9.006;2023-07-28T14:10:27;27.10;99.90
11242;DHT22;5678;52.370;9.006;2023-07-28T14:12:55;27.10;99.90
11242;DHT22;5678;52.370;9.006;2023-07-28T14:15:23;27.30;99.90
11242;DHT22;5678;52.370;9.006;2023-07-28T14:17:50;27.40;99.90
11242;DHT22;5678;52.370;9.006;2023-07-28T14:20:19;27.20;99.90
11242;DHT22;5678;52.370;9.006;2023-07-28T14:22:48;27.20;99.90
11242;DHT22;5678;52.370;9.006;2023-07-28T14:25:16;27.40;99.90
11242;DHT22;5678;52.370;9.006;2023-07-28T14:27:44;27.40;99.90
11242;DHT22;5678;52.370;9.006;2023-07-28T14:30:12;27.20;99.90
11242;DHT22;5678;52.370;9.006;2023-07-28T14:32:39;27.10;99.90
11242;DHT22;5678;52.370;9.006;2023-07-28T14:35:07;27.10;99.90
11242;DHT22;5678;52.370;9.006;2023-07-28T14:37:35;27.50;99.90
11242;DHT22;5678;52.370;9.006;2023-07-28T14:40:06;27.60;99.90
11242;DHT22;5678;52.370;9.006;2023-07-28T14:42:34;27.80;99.90
11242;DHT22;5678;52.370;9.006;2023-07-28T14:45:03;27.90;99.90
11242;DHT22;5678;52.370;9.006;2023-07-28T14:47:31;27.90;99.90
11242;DHT22;5678;52.370;9.006;2023-07-28T14:49:59;28.00;99.90
11242;DHT22;5678;52.370;9.006;2023-07-28T14:52:27;27.90;99.90
11242;DHT22;5678;52.370;9.006;2023-07-28T14:54:54;28.00;99.90
11242;DHT22;5678;52.370;9.006;2023-07-28T14:57:24;27.90;99.90
11242;DHT22;5678;52.370;9.006;2023-07-28T15:00:01;27.70;99.90
11242;DHT22;5678;52.370;9.006;2023-07-28T15:02:29;27.40;99.90
11242;DHT22;5678;52.370;9.006;2023-07-28T15:04:57;27.30;99.90
11242;DHT22;5678;52.370;9.006;2023-07-28T15:07:25;27.10;99.90
11242;DHT22;5678;52.370;9.006;2023-07-28T15:09:53;27.00;99.90
11242;DHT22;5678;52.370;9.006;2023-07-28T15:12:21;26.70;99.90
11242;DHT22;5678;52.370;9.006;2023-07-28T15:14:50;26.60;99.90
11242;DHT22;5678;52.370;9.006;2023-07-28T15:39:40;27.40;99.90
11242;DHT22;5678;52.370;9.006;2023-07-28T15:42:08;27.60;99.90
11242;DHT22;5678;52.370;9.006;2023-07-28T15:44:36;27.80;99.90
11242;DHT22;5678;52.370;9.006;2023-07-28T15:49:35;27.60;99.90
11242;DHT22;5678;52.370;9.006;2023-07-28T17:17:12;26.40;99.90
11242;DHT22;5678;52.370;9.006;2023-07-28T17:19:40;26.40;99.90
11242;DHT22;5678;52.370;9.006;2023-07-28T17:22:07;26.20;99.90
11242;DHT22;5678;52.370;9.006;2023-07-28T17:24:35;26.20;99.90
11242;DHT22;5678;52.370;9.006;2023-07-28T17:27:04;26.00;99.90
11242;DHT22;5678;52.370;9.006;2023-07-28T17:29:34;25.90;99.90
11242;DHT22;5678;52.370;9.006;2023-07-28T17:32:02;25.80;99.90
11242;DHT22;5678;52.370;9.006;2023-07-28T17:34:30;25.70;99.90
11242;DHT22;5678;52.370;9.006;2023-07-28T17:36:58;25.60;99.90
11242;DHT22;5678;52.370;9.006;2023-07-28T17:39:25;25.40;99.90
11242;DHT22;5678;52.370;9.006;2023-07-28T17:41:54;25.40;99.90
11242;DHT22;5678;52.370;9.006;2023-07-28T17:44:22;25.40;99.90
11242;DHT22;5678;52.370;9.006;2023-07-28T17:46:51;25.40;99.90
11242;DHT22;5678;52.370;9.006;2023-07-28T17:49:19;25.30;99.90
11242;DHT22;5678;52.370;9.006;2023-07-28T17:51:48;25.30;99.90
11242;DHT22;5678;52.370;9.006;2023-07-28T17:54:16;25.10;99.90
11242;DHT22;5678;52.370;9.006;2023-07-28T17:56:44;25.10;99.90
11242;DHT22;5678;52.370;9.006;2023-07-28T18:11:36;24.70;99.90
11242;DHT22;5678;52.370;9.006;2023-07-28T18:54:05;23.40;99.90
11242;DHT22;5678;52.370;9.006;2023-07-28T19:04:01;23.00;99.90
11242;DHT22;5678;52.370;9.006;2023-07-28T19:06:29;23.00;99.90
11242;DHT22;5678;52.370;9.006;2023-07-28T19:08:59;22.80;99.90
